Time;durP1;ratioP1;P1;durP2;ratioP2;P2;SDS_P1;SDS_P2;PMS_P1;PMS_P2;Temp;Humidity;BMP_temperature;BMP_pressure;BME280_temperature;BME280_humidity;BME280_pressure;Samples;Min_cycle;Max_cycle;Signal;HPM_P1;HPM_P2
2023/09/04 00:00:39;;;;;;;1.70;1.60;;;23.50;88.10;;;;;;6185983;23;20406;-90
2023/09/04 00:03:07;;;;;;;1.87;1.77;;;23.50;88.10;;;;;;6185979;23;20525;-89
2023/09/04 00:05:34;;;;;;;1.90;1.80;;;23.50;88.10;;;;;;6186088;23;20407;-89
2023/09/04 00:08:01;;;;;;;2.00;1.90;;;23.50;88.10;;;;;;6186128;23;20402;-88
2023/09/04 00:10:27;;;;;;;2.00;1.90;;;23.40;88.00;;;;;;6186156;23;20446;-90
2023/09/04 00:12:54;;;;;;;1.70;1.53;;;23.60;88.20;;;;;;6186074;23;20927;-88
2023/09/04 00:15:21;;;;;;;1.50;1.40;;;23.50;88.10;;;;;;6186095;23;20871;-89
2023/09/04 00:17:49;;;;;;;1.50;1.37;;;23.50;88.00;;;;;;6186097;23;20494;-91
2023/09/04 00:20:17;;;;;;;2.00;1.80;;;23.50;88.00;;;;;;6185895;23;20414;-90
2023/09/04 00:22:44;;;;;;;1.73;1.43;;;23.50;88.00;;;;;;6185967;23;20408;-89
2023/09/04 00:25:11;;;;;;;1.60;1.50;;;23.50;88.00;;;;;;6185948;23;20407;-91
2023/09/04 00:27:38;;;;;;;2.10;1.90;;;23.50;88.00;;;;;;6186855;23;20490;-91
2023/09/04 00:30:05;;;;;;;1.70;1.60;;;23.40;88.00;;;;;;6185576;23;20451;-88
2023/09/04 00:32:32;;;;;;;1.80;1.70;;;23.50;88.00;;;;;;6185597;23;20426;-89
2023/09/04 00:34:59;;;;;;;1.63;1.53;;;23.40;87.80;;;;;;6185575;23;20494;-88
2023/09/04 00:37:27;;;;;;;2.00;1.80;;;23.50;88.00;;;;;;6186189;23;20468;-90
2023/09/04 00:39:54;;;;;;;1.60;1.50;;;23.50;88.00;;;;;;6185901;23;20775;-91
2023/09/04 00:42:21;;;;;;;1.73;1.63;;;23.40;87.80;;;;;;6185963;23;20450;-88
2023/09/04 00:44:50;;;;;;;1.60;1.50;;;23.40;87.90;;;;;;6186064;23;20403;-91
2023/09/04 00:47:17;;;;;;;1.83;1.63;;;23.40;87.90;;;;;;6186243;23;20402;-88
2023/09/04 00:49:46;;;;;;;1.87;1.77;;;23.40;87.90;;;;;;6186194;23;20403;-91
2023/09/04 00:52:13;;;;;;;2.47;1.80;;;23.40;87.80;;;;;;6187201;23;20425;-88
2023/09/04 00:54:43;;;;;;;1.60;1.50;;;23.40;87.90;;;;;;6187773;23;20410;-90
2023/09/04 00:57:12;;;;;;;1.70;1.60;;;23.40;87.80;;;;;;6187728;23;20402;-91
2023/09/04 00:59:40;;;;;;;2.27;2.07;;;23.50;87.90;;;;;;6187664;23;20407;-88
2023/09/04 01:02:11;;;;;;;1.57;1.47;;;23.40;87.80;;;;;;6187255;23;20430;-91
2023/09/04 01:04:37;;;;;;;1.77;1.67;;;23.40;87.70;;;;;;6188156;23;20400;-89
2023/09/04 01:07:04;;;;;;;2.10;1.63;;;23.40;87.70;;;;;;6187125;23;20481;-88
2023/09/04 01:09:31;;;;;;;1.80;1.70;;;23.40;87.70;;;;;;6187514;23;20481;-89
2023/09/04 01:12:05;;;;;;;2.10;1.90;;;23.40;87.70;;;;;;6186913;23;20453;-90
2023/09/04 01:14:34;;;;;;;1.67;1.57;;;23.40;87.70;;;;;;6187637;23;20402;-89
2023/09/04 01:17:02;;;;;;;1.50;1.40;;;23.40;87.70;;;;;;6187350;23;20406;-91
2023/09/04 01:19:29;;;;;;;1.80;1.70;;;23.40;87.70;;;;;;6187556;23;20414;-91
2023/09/04 01:21:57;;;;;;;1.93;1.83;;;23.40;87.70;;;;;;6187402;23;20416;-89
2023/09/04 01:24:24;;;;;;;1.70;1.60;;;23.40;87.70;;;;;;6187449;23;20396;-88
2023/09/04 01:26:56;;;;;;;2.10;1.90;;;23.40;87.70;;;;;;6187496;23;20430;-89
2023/09/04 01:29:30;;;;;;;1.87;1.77;;;23.40;87.70;;;;;;6187261;23;20387;-89
2023/09/04 01:32:01;;;;;;;2.33;1.80;;;23.50;87.80;;;;;;6187579;23;20470;-91
2023/09/04 01:34:31;;;;;;;1.70;1.60;;;23.40;87.60;;;;;;6187403;23;20945;-90
2023/09/04 01:37:00;;;;;;;1.60;1.50;;;23.40;87.70;;;;;;6187131;23;20410;-89
2023/09/04 01:39:27;;;;;;;1.80;1.70;;;23.40;87.70;;;;;;6187584;23;20441;-90
2023/09/04 01:41:54;;;;;;;1.67;1.57;;;23.40;87.70;;;;;;6186844;23;20802;-89
2023/09/04 01:44:22;;;;;;;1.53;1.43;;;23.50;87.70;;;;;;6187210;23;20438;-89
2023/09/04 01:46:48;;;;;;;1.60;1.50;;;23.40;87.60;;;;;;6186930;23;20407;-88
2023/09/04 01:49:15;;;;;;;1.60;1.47;;;23.40;87.60;;;;;;6187288;23;20485;-90
2023/09/04 01:51:42;;;;;;;1.90;1.80;;;23.40;87.60;;;;;;6186574;23;20482;-89
2023/09/04 01:54:11;;;;;;;2.50;2.30;;;23.40;87.50;;;;;;6187095;23;20408;-89
2023/09/04 01:56:38;;;;;;;1.83;1.73;;;23.40;87.50;;;;;;6186719;23;20449;-91
2023/09/04 01:59:05;;;;;;;1.83;1.70;;;23.40;87.60;;;;;;6187226;23;20474;-90
2023/09/04 02:01:32;;;;;;;1.60;1.50;;;23.40;87.50;;;;;;6186221;23;20416;-88
2023/09/04 02:03:59;;;;;;;1.90;1.80;;;23.40;87.50;;;;;;6186937;23;20429;-90
2023/09/04 02:06:29;;;;;;;2.00;1.63;;;23.40;87.50;;;;;;6187107;23;20468;-88
2023/09/04 02:08:56;;;;;;;1.67;1.53;;;23.40;87.50;;;;;;6186964;23;20409;-89
2023/09/04 02:11:24;;;;;;;1.70;1.60;;;23.30;87.40;;;;;;6186944;23;20446;-89
2023/09/04 02:13:51;;;;;;;1.60;1.50;;;23.30;87.40;;;;;;6186609;23;20741;-88
2023/09/04 02:16:18;;;;;;;2.00;1.90;;;23.50;87.60;;;;;;6187061;23;20497;-88
2023/09/04 02:18:45;;;;;;;1.80;1.70;;;23.30;87.40;;;;;;6187063;23;20413;-88
2023/09/04 02:21:11;;;;;;;1.57;1.47;;;23.30;87.40;;;;;;6186831;23;20415;-88
2023/09/04 02:23:38;;;;;;;2.43;1.80;;;23.30;87.40;;;;;;6186426;23;20485;-89
2023/09/04 02:26:05;;;;;;;1.53;1.43;;;23.30;87.30;;;;;;6186851;23;20742;-91
2023/09/04 02:28:33;;;;;;;1.63;1.50;;;23.30;87.30;;;;;;6187627;23;20489;-90
2023/09/04 02:31:06;;;;;;;1.50;1.40;;;23.40;87.40;;;;;;6186363;23;20447;-90
2023/09/04 02:33:33;;;;;;;1.60;1.50;;;23.30;87.30;;;;;;6186397;23;20506;-89
2023/09/04 02:35:59;;;;;;;1.60;1.50;;;23.30;87.30;;;;;;6186460;23;20916;-91
2023/09/04 02:38:26;;;;;;;1.70;1.60;;;23.30;87.20;;;;;;6186439;23;20412;-91
2023/09/04 02:40:53;;;;;;;1.60;1.50;;;23.30;87.20;;;;;;6186688;23;20399;-89
2023/09/04 02:43:20;;;;;;;1.83;1.73;;;23.30;87.20;;;;;;6186536;23;20401;-88
2023/09/04 02:45:48;;;;;;;1.87;1.77;;;23.30;87.20;;;;;;6186702;23;20755;-90
2023/09/04 02:48:15;;;;;;;2.00;1.90;;;23.30;87.20;;;;;;6186666;23;20442;-91
2023/09/04 02:50:42;;;;;;;1.87;1.67;;;23.30;87.20;;;;;;6186504;23;20553;-88
2023/09/04 02:53:08;;;;;;;1.50;1.40;;;23.30;87.20;;;;;;6186516;23;20496;-90
2023/09/04 02:55:36;;;;;;;1.60;1.50;;;23.30;87.20;;;;;;6186228;23;20753;-91
2023/09/04 02:58:03;;;;;;;1.40;1.30;;;23.30;87.20;;;;;;6186670;23;20390;-91
2023/09/04 03:00:30;;;;;;;2.23;2.03;;;23.30;87.20;;;;;;6186662;23;20490;-88
2023/09/04 03:02:58;;;;;;;1.40;1.30;;;23.30;87.10;;;;;;6186281;23;20546;-88
2023/09/04 03:05:27;;;;;;;2.00;1.90;;;23.30;87.10;;;;;;6186261;23;20430;-88
2023/09/04 03:07:54;;;;;;;1.63;1.53;;;23.30;87.10;;;;;;6185865;23;20706;-89
2023/09/04 03:10:20;;;;;;;1.40;1.30;;;23.30;87.10;;;;;;6186157;23;20406;-89
2023/09/04 03:12:47;;;;;;;1.60;1.50;;;23.30;87.10;;;;;;6186241;23;20536;-88
2023/09/04 03:15:14;;;;;;;1.70;1.60;;;23.30;87.10;;;;;;6186055;23;20402;-89
2023/09/04 03:17:41;;;;;;;1.67;1.57;;;23.30;87.10;;;;;;6186662;23;20409;-89
2023/09/04 03:20:11;;;;;;;1.70;1.60;;;23.30;87.80;;;;;;6186383;23;20410;-91
2023/09/04 03:22:38;;;;;;;1.97;1.77;;;23.30;87.10;;;;;;6186148;23;20410;-88
2023/09/04 03:25:05;;;;;;;1.53;1.43;;;23.30;87.10;;;;;;6186049;23;20990;-89
2023/09/04 03:27:32;;;;;;;1.63;1.50;;;23.30;87.00;;;;;;6186067;23;20403;-91
2023/09/04 03:29:59;;;;;;;1.60;1.50;;;23.30;87.00;;;;;;6186171;23;20505;-89
2023/09/04 03:32:26;;;;;;;1.87;1.77;;;23.30;87.00;;;;;;6186956;23;21022;-90
2023/09/04 03:34:52;;;;;;;2.07;1.33;;;23.30;87.00;;;;;;6185795;23;20399;-89
2023/09/04 03:37:20;;;;;;;1.77;1.67;;;23.30;86.90;;;;;;6185961;23;20407;-91
2023/09/04 03:39:47;;;;;;;1.60;1.50;;;23.30;87.00;;;;;;6185657;23;20415;-91
2023/09/04 03:42:14;;;;;;;1.40;1.30;;;23.30;86.90;;;;;;6186502;23;20409;-89
2023/09/04 03:44:41;;;;;;;2.77;2.47;;;23.30;86.90;;;;;;6186364;23;20405;-89
2023/09/04 03:47:08;;;;;;;1.80;1.70;;;23.30;86.90;;;;;;6185934;23;20883;-91
2023/09/04 03:49:34;;;;;;;1.70;1.60;;;23.30;86.90;;;;;;6186275;23;20407;-88
2023/09/04 03:52:02;;;;;;;1.50;1.40;;;23.30;86.90;;;;;;6186181;23;20531;-91
2023/09/04 03:54:30;;;;;;;1.53;1.43;;;23.30;86.90;;;;;;6185701;23;20917;-91
2023/09/04 03:56:57;;;;;;;1.80;1.70;;;23.30;86.90;;;;;;6186221;23;20395;-91
2023/09/04 03:59:23;;;;;;;1.73;1.63;;;23.30;86.80;;;;;;6186120;23;20488;-89
2023/09/04 04:01:51;;;;;;;2.50;1.80;;;23.30;86.80;;;;;;6185746;23;20699;-90
2023/09/04 04:04:18;;;;;;;2.03;1.80;;;23.30;86.80;;;;;;6185712;23;20403;-90
2023/09/04 04:06:45;;;;;;;1.40;1.30;;;23.30;86.70;;;;;;6186064;23;20401;-90
2023/09/04 04:09:13;;;;;;;1.70;1.60;;;23.30;86.80;;;;;;6185814;23;20433;-89
2023/09/04 04:11:41;;;;;;;1.80;1.70;;;23.30;86.80;;;;;;6186029;23;20450;-91
2023/09/04 04:14:08;;;;;;;2.00;1.80;;;23.30;86.80;;;;;;6186452;23;20391;-91
2023/09/04 04:16:36;;;;;;;1.70;1.60;;;23.30;86.70;;;;;;6186266;23;20399;-89
2023/09/04 04:19:03;;;;;;;1.70;1.60;;;23.30;86.70;;;;;;6185759;23;20430;-91
2023/09/04 04:21:30;;;;;;;1.47;1.37;;;23.30;86.70;;;;;;6186142;23;20734;-91
2023/09/04 04:23:56;;;;;;;1.77;1.60;;;23.20;86.60;;;;;;6185795;23;20442;-89
2023/09/04 04:26:24;;;;;;;2.03;1.87;;;23.30;86.60;;;;;;6187278;23;20486;-89
2023/09/04 04:28:52;;;;;;;1.70;1.60;;;23.30;86.70;;;;;;6187931;23;20405;-90
2023/09/04 04:31:19;;;;;;;1.70;1.60;;;23.20;86.60;;;;;;6186898;23;20456;-90
2023/09/04 04:33:46;;;;;;;1.60;1.50;;;23.30;86.60;;;;;;6187923;23;20445;-91
2023/09/04 04:36:13;;;;;;;2.47;1.63;;;23.20;86.60;;;;;;6187423;23;20440;-91
2023/09/04 04:38:40;;;;;;;1.57;1.30;;;23.20;86.50;;;;;;6187388;23;20978;-91
2023/09/04 04:41:07;;;;;;;1.67;1.57;;;23.20;86.50;;;;;;6188998;23;20415;-91
2023/09/04 04:43:34;;;;;;;1.60;1.50;;;23.20;86.50;;;;;;6188172;23;20406;-92
2023/09/04 04:46:04;;;;;;;4.67;1.90;;;23.20;86.50;;;;;;6187972;23;20407;-90
2023/09/04 04:48:33;;;;;;;2.27;1.40;;;23.20;86.50;;;;;;6188086;23;20424;-91
2023/09/04 04:51:00;;;;;;;2.33;1.57;;;23.20;86.40;;;;;;6187833;23;20765;-92
2023/09/04 04:53:30;;;;;;;1.63;1.53;;;23.20;86.50;;;;;;6187734;23;20437;-91
2023/09/04 04:55:57;;;;;;;1.80;1.70;;;23.20;86.50;;;;;;6187505;23;20451;-92
2023/09/04 04:58:24;;;;;;;1.50;1.40;;;23.20;86.40;;;;;;6187710;23;20437;-90
2023/09/04 05:00:51;;;;;;;1.70;1.50;;;23.30;86.50;;;;;;6187726;23;20402;-90
2023/09/04 05:03:20;;;;;;;1.70;1.60;;;23.20;86.40;;;;;;6187142;23;20450;-91
2023/09/04 05:05:47;;;;;;;1.60;1.50;;;23.20;86.40;;;;;;6187280;23;20435;-91
2023/09/04 05:11:37;;;;;;;1.60;1.50;;;23.20;86.30;;;;;;6187734;23;20908;-91
2023/09/04 05:14:03;;;;;;;1.53;1.30;;;23.20;86.50;;;;;;6186845;23;20417;-90
2023/09/04 05:16:30;;;;;;;1.73;1.63;;;23.30;86.60;;;;;;6187653;23;20417;-91
2023/09/04 05:22:20;;;;;;;1.80;1.70;;;23.20;86.40;;;;;;6187281;23;20386;-92
2023/09/04 05:24:50;;;;;;;1.60;1.50;;;23.20;86.60;;;;;;6187604;23;20453;-90
2023/09/04 05:27:18;;;;;;;2.07;1.97;;;23.20;86.50;;;;;;6187357;23;20395;-91
2023/09/04 05:29:45;;;;;;;1.83;1.50;;;23.20;86.40;;;;;;6187203;23;20521;-90
2023/09/04 05:32:12;;;;;;;1.40;1.30;;;23.20;86.50;;;;;;6187074;23;20545;-91
2023/09/04 05:34:40;;;;;;;1.30;1.20;;;23.20;86.40;;;;;;6187047;23;20417;-92
2023/09/04 05:37:07;;;;;;;2.10;1.67;;;23.20;86.40;;;;;;6186574;23;20407;-91
2023/09/04 05:39:35;;;;;;;1.80;1.50;;;23.20;86.50;;;;;;6187197;23;20469;-90
2023/09/04 05:42:03;;;;;;;1.60;1.50;;;23.20;86.30;;;;;;6186912;23;20781;-91
2023/09/04 05:44:30;;;;;;;1.93;1.83;;;23.20;86.00;;;;;;6187185;23;20416;-91
2023/09/04 05:46:57;;;;;;;4.90;2.57;;;23.20;86.50;;;;;;6186709;23;20421;-90
2023/09/04 05:49:24;;;;;;;2.00;1.90;;;23.20;84.70;;;;;;6186368;23;20891;-89
2023/09/04 05:51:51;;;;;;;1.77;1.67;;;23.20;85.40;;;;;;6186425;23;20443;-90
2023/09/04 05:54:18;;;;;;;2.17;1.80;;;23.20;86.20;;;;;;6186316;23;20726;-89
2023/09/04 05:56:46;;;;;;;3.93;1.83;;;23.20;86.20;;;;;;6186971;23;20424;-90
2023/09/04 05:59:14;;;;;;;4.00;1.80;;;23.20;86.60;;;;;;6186256;23;20493;-90
2023/09/04 06:01:40;;;;;;;1.87;1.73;;;23.20;86.70;;;;;;6186375;23;20415;-89
2023/09/04 06:04:07;;;;;;;1.90;1.80;;;23.20;87.60;;;;;;6186436;23;20410;-89
2023/09/04 06:06:34;;;;;;;1.67;1.57;;;23.20;86.90;;;;;;6186506;23;20485;-90
2023/09/04 06:09:01;;;;;;;1.50;1.30;;;23.20;87.00;;;;;;6186275;23;20812;-89
2023/09/04 06:11:28;;;;;;;1.77;1.67;;;23.20;87.00;;;;;;6186493;23;20477;-89
2023/09/04 06:13:56;;;;;;;2.07;1.60;;;23.30;87.00;;;;;;6185916;23;20498;-89
2023/09/04 06:16:23;;;;;;;2.53;1.30;;;23.20;86.90;;;;;;6186871;23;20428;-89
2023/09/04 06:18:50;;;;;;;2.73;1.33;;;23.30;87.10;;;;;;6186714;23;20413;-89
2023/09/04 06:21:17;;;;;;;2.00;1.77;;;23.20;87.00;;;;;;6186390;23;20414;-89
2023/09/04 06:23:45;;;;;;;1.80;1.67;;;23.20;87.10;;;;;;6186080;23;20800;-89
2023/09/04 06:26:12;;;;;;;2.07;1.87;;;23.20;87.20;;;;;;6186861;23;20483;-89
2023/09/04 06:28:39;;;;;;;2.03;1.67;;;23.20;87.20;;;;;;6186976;23;20890;-89
2023/09/04 06:31:07;;;;;;;1.50;1.30;;;23.30;87.30;;;;;;6186436;23;20525;-89
2023/09/04 06:36:57;;;;;;;1.70;1.60;;;23.30;87.40;;;;;;6186846;23;20696;-89
2023/09/04 06:39:24;;;;;;;1.80;1.70;;;23.20;87.50;;;;;;6186351;23;20419;-89
2023/09/04 06:41:51;;;;;;;2.90;1.90;;;23.20;87.40;;;;;;6186772;23;20508;-88
2023/09/04 06:44:18;;;;;;;2.17;1.93;;;23.20;87.40;;;;;;6186596;23;20403;-88
2023/09/04 06:46:46;;;;;;;1.90;1.80;;;23.30;87.60;;;;;;6186493;23;20406;-89
2023/09/04 06:49:13;;;;;;;1.80;1.70;;;23.40;87.50;;;;;;6186311;23;20402;-90
2023/09/04 06:51:40;;;;;;;2.80;1.80;;;23.30;87.40;;;;;;6186132;23;20393;-89
2023/09/04 06:54:07;;;;;;;1.80;1.70;;;23.30;87.30;;;;;;6186384;23;20409;-89
2023/09/04 06:56:34;;;;;;;1.90;1.80;;;23.30;87.30;;;;;;6186083;23;20409;-89
2023/09/04 06:59:01;;;;;;;3.23;1.50;;;23.30;87.20;;;;;;6186096;23;20406;-89
2023/09/04 07:01:27;;;;;;;2.13;2.00;;;23.30;87.30;;;;;;6186119;23;20411;-89
2023/09/04 07:03:57;;;;;;;1.87;1.77;;;23.30;87.20;;;;;;6186769;23;20402;-94
2023/09/04 07:06:24;;;;;;;1.90;1.67;;;23.30;87.20;;;;;;6186023;23;20435;-93
2023/09/04 07:08:53;;;;;;;2.60;2.40;;;23.30;87.10;;;;;;6186613;23;20796;-94
2023/09/04 07:11:19;;;;;;;1.97;1.80;;;23.30;86.50;;;;;;6186345;23;20407;-94
2023/09/04 07:13:46;;;;;;;3.13;2.00;;;23.30;86.60;;;;;;6186266;23;20830;-94
2023/09/04 07:16:13;;;;;;;2.10;2.00;;;23.30;86.70;;;;;;6186071;23;20489;-93
2023/09/04 07:18:40;;;;;;;2.53;1.80;;;23.30;86.80;;;;;;6185916;23;20434;-93
2023/09/04 07:21:08;;;;;;;3.80;1.67;;;23.30;86.80;;;;;;6186166;23;20402;-92
2023/09/04 07:23:35;;;;;;;3.63;2.30;;;23.40;87.00;;;;;;6185363;23;20414;-93
2023/09/04 07:26:02;;;;;;;4.77;1.73;;;23.40;87.00;;;;;;6186124;23;20407;-94
2023/09/04 07:28:29;;;;;;;3.20;2.43;;;23.40;87.80;;;;;;6185949;23;20482;-94
2023/09/04 07:31:14;;;;;;;5.93;2.23;;;23.40;87.00;;;;;;6185960;23;20520;-93
2023/09/04 07:33:41;;;;;;;1.73;1.57;;;23.40;86.90;;;;;;6186388;23;20454;-94
2023/09/04 07:36:10;;;;;;;2.90;1.87;;;23.40;87.00;;;;;;6186073;23;20437;-94
2023/09/04 07:38:37;;;;;;;2.80;2.00;;;23.40;87.80;;;;;;6186184;23;20485;-94
2023/09/04 07:41:04;;;;;;;1.70;1.60;;;23.40;86.90;;;;;;6186372;23;20406;-93
2023/09/04 07:43:32;;;;;;;1.80;1.63;;;23.40;87.00;;;;;;6185884;23;20949;-94
2023/09/04 07:46:00;;;;;;;3.73;1.73;;;23.40;87.00;;;;;;6185838;23;20413;-94
2023/09/04 07:48:27;;;;;;;3.60;2.20;;;23.40;87.10;;;;;;6185786;23;20415;-94
2023/09/04 07:50:54;;;;;;;2.97;2.10;;;23.40;87.10;;;;;;6186197;23;20888;-94
2023/09/04 07:53:23;;;;;;;4.30;3.13;;;23.40;87.00;;;;;;6187038;23;20537;-95
2023/09/04 07:55:51;;;;;;;3.90;3.00;;;23.40;87.70;;;;;;6186977;23;20494;-95
2023/09/04 07:58:18;;;;;;;2.90;2.47;;;23.40;86.70;;;;;;6185607;23;20728;-92
2023/09/04 08:00:46;;;;;;;3.87;2.20;;;23.40;87.10;;;;;;6187031;23;20552;-92
2023/09/04 08:03:14;;;;;;;7.67;3.23;;;23.40;87.00;;;;;;6188111;23;20423;-92
2023/09/04 08:05:41;;;;;;;4.43;3.30;;;23.40;87.00;;;;;;6187903;23;20403;-92
2023/09/04 08:08:09;;;;;;;7.03;3.27;;;23.40;87.20;;;;;;6187533;23;20409;-92
2023/09/04 08:10:43;;;;;;;5.50;2.80;;;23.50;87.30;;;;;;6188876;23;20740;-96
2023/09/04 08:13:12;;;;;;;2.80;2.53;;;23.50;87.20;;;;;;6189593;23;20509;-90
2023/09/04 08:15:39;;;;;;;3.07;2.60;;;23.50;87.20;;;;;;6189051;23;20477;-90
2023/09/04 08:18:07;;;;;;;5.50;2.60;;;23.50;87.20;;;;;;6188650;23;20405;-89
2023/09/04 08:20:34;;;;;;;4.07;2.20;;;23.50;87.30;;;;;;6189025;23;20414;-89
2023/09/04 08:23:01;;;;;;;4.13;2.30;;;23.50;87.40;;;;;;6188824;23;20414;-89
2023/09/04 08:25:28;;;;;;;5.53;2.57;;;23.50;87.30;;;;;;6188221;23;20406;-90
2023/09/04 08:27:57;;;;;;;3.50;2.60;;;23.50;87.40;;;;;;6188395;23;20399;-90
2023/09/04 08:30:24;;;;;;;3.53;3.10;;;23.50;87.50;;;;;;6188588;23;20441;-88
2023/09/04 08:32:51;;;;;;;5.57;2.80;;;23.50;87.70;;;;;;6188534;23;20450;-89
2023/09/04 08:35:18;;;;;;;12.47;4.03;;;23.60;88.00;;;;;;6188376;23;20494;-90
2023/09/04 08:37:45;;;;;;;21.13;7.40;;;23.60;88.10;;;;;;6193750;23;20410;-91
2023/09/04 08:40:14;;;;;;;40.10;11.87;;;23.60;88.40;;;;;;6187537;23;20410;-93
2023/09/04 08:42:45;;;;;;;35.70;10.30;;;23.60;88.70;;;;;;6190224;23;20439;-92
2023/09/04 08:45:24;;;;;;;26.97;9.60;;;23.60;88.80;;;;;;6194896;23;20390;-92
2023/09/04 08:48:03;;;;;;;33.60;10.40;;;23.60;88.80;;;;;;6166234;23;20407;-94
2023/09/04 08:51:11;;;;;;;24.47;7.40;;;23.60;88.90;;;;;;6188763;23;20415;-94
2023/09/04 08:53:57;;;;;;;29.40;9.03;;;23.50;89.50;;;;;;6188259;23;20475;-95
2023/09/04 08:56:36;;;;;;;32.13;9.23;;;23.70;88.90;;;;;;6188080;23;20413;-95
2023/09/04 08:59:21;;;;;;;24.83;8.50;;;23.60;88.60;;;;;;6189539;23;20489;-96
2023/09/04 09:02:20;;;;;;;32.73;8.13;;;23.60;88.70;;;;;;6187895;23;20489;-95
2023/09/04 09:05:02;;;;;;;26.97;7.37;;;23.60;88.70;;;;;;6187910;23;20402;-95
2023/09/04 09:07:46;;;;;;;18.67;6.13;;;23.60;88.70;;;;;;6188175;23;20482;-95
2023/09/04 09:10:25;;;;;;;19.33;6.87;;;23.60;88.70;;;;;;6188321;23;20953;-95
2023/09/04 09:13:17;;;;;;;19.73;6.67;;;23.50;88.60;;;;;;6188869;23;20805;-94
2023/09/04 09:16:09;;;;;;;22.60;6.30;;;23.50;88.50;;;;;;6162713;23;20461;-95
2023/09/04 09:18:45;;;;;;;21.07;6.70;;;23.50;88.50;;;;;;6188059;23;20403;-95
2023/09/04 09:21:34;;;;;;;20.50;7.10;;;23.50;88.60;;;;;;6187704;23;20395;-94
2023/09/04 09:24:19;;;;;;;24.67;6.70;;;23.50;88.50;;;;;;6188647;23;20453;-94
2023/09/04 09:26:51;;;;;;;30.83;7.50;;;23.40;88.50;;;;;;6188700;23;20445;-95
2023/09/04 09:29:27;;;;;;;23.50;7.27;;;23.40;88.50;;;;;;6188056;23;20460;-95
2023/09/04 09:32:08;;;;;;;18.80;6.33;;;23.50;88.50;;;;;;6187731;23;20925;-95
2023/09/04 09:35:00;;;;;;;16.63;6.73;;;23.40;88.40;;;;;;6188273;23;20442;-95
2023/09/04 09:37:54;;;;;;;12.63;5.40;;;23.50;88.50;;;;;;6188569;23;20850;-96
2023/09/04 09:40:34;;;;;;;18.70;6.90;;;23.50;88.50;;;;;;6174434;23;20413;-95
2023/09/04 09:43:10;;;;;;;15.33;4.40;;;23.50;88.60;;;;;;6188794;23;20461;-94
2023/09/04 09:45:47;;;;;;;16.07;5.70;;;23.50;88.50;;;;;;6188212;23;20409;-95
2023/09/04 09:48:23;;;;;;;13.30;5.13;;;23.50;88.50;;;;;;6188098;23;20782;-94
2023/09/04 09:51:07;;;;;;;12.13;5.63;;;23.60;88.60;;;;;;6187562;23;20407;-94
2023/09/04 09:53:44;;;;;;;17.43;5.67;;;23.40;88.40;;;;;;6188103;23;20943;-90
2023/09/04 09:56:13;;;;;;;17.03;4.73;;;23.50;88.50;;;;;;6187318;23;20394;-90
2023/09/04 09:58:41;;;;;;;14.63;6.57;;;23.50;88.40;;;;;;6187266;23;20405;-90
2023/09/04 10:01:09;;;;;;;13.10;5.30;;;23.50;88.40;;;;;;6186874;23;20414;-90
2023/09/04 10:04:27;;;;;;;12.20;4.63;;;23.50;88.40;;;;;;6197517;23;20405;-96
2023/09/04 11:13:18;;;;;;;5.73;2.80;;;23.50;87.80;;;;;;6074200;23;20439;-95
2023/09/04 11:25:48;;;;;;;9.23;3.57;;;23.50;87.90;;;;;;6202324;23;20552;-94
2023/09/04 11:30:53;;;;;;;8.20;3.30;;;23.50;88.00;;;;;;6189504;23;20453;-93
2023/09/04 11:33:20;;;;;;;3.90;2.57;;;23.50;87.90;;;;;;6187000;23;20489;-93
2023/09/04 11:35:47;;;;;;;6.93;3.17;;;23.50;88.10;;;;;;6187453;23;20900;-95
2023/09/04 11:38:25;;;;;;;3.70;3.17;;;23.60;88.00;;;;;;6187765;23;20862;-94
2023/09/04 11:40:52;;;;;;;5.73;3.17;;;23.60;88.00;;;;;;6186643;23;20410;-93
2023/09/04 11:43:19;;;;;;;4.90;3.10;;;23.50;87.80;;;;;;6186407;23;20403;-91
2023/09/04 11:45:46;;;;;;;4.73;3.30;;;23.60;87.90;;;;;;6187544;23;20494;-91
2023/09/04 11:48:14;;;;;;;8.63;2.87;;;23.60;88.00;;;;;;6187017;23;20407;-91
2023/09/04 11:50:43;;;;;;;3.67;2.50;;;23.60;88.00;;;;;;6186747;23;20454;-96
2023/09/04 11:53:11;;;;;;;5.10;3.30;;;23.60;87.90;;;;;;6186910;23;20512;-96
2023/09/04 11:55:38;;;;;;;10.97;2.97;;;23.60;87.90;;;;;;6187514;23;20406;-96
2023/09/04 11:58:05;;;;;;;3.00;2.30;;;23.60;87.90;;;;;;6186820;23;20497;-95
2023/09/04 12:00:32;;;;;;;5.03;3.33;;;23.60;87.90;;;;;;6187924;23;20398;-94
2023/09/04 12:02:59;;;;;;;4.27;2.83;;;23.60;87.90;;;;;;6187894;23;20805;-95
2023/09/04 12:05:28;;;;;;;6.30;2.90;;;23.60;88.00;;;;;;6188499;23;20406;-92
2023/09/04 12:07:55;;;;;;;6.37;2.50;;;23.60;88.00;;;;;;6187197;23;20413;-93
2023/09/04 12:10:23;;;;;;;3.83;2.53;;;23.60;88.00;;;;;;6186711;23;20493;-96
2023/09/04 12:12:49;;;;;;;8.77;3.50;;;23.60;88.10;;;;;;6187364;23;20441;-96
2023/09/04 12:15:26;;;;;;;4.70;2.23;;;23.60;88.10;;;;;;6187588;23;20485;-96
2023/09/04 12:17:53;;;;;;;5.93;2.30;;;23.60;88.50;;;;;;6187036;23;20421;-96
2023/09/04 12:20:20;;;;;;;3.70;2.33;;;23.60;88.90;;;;;;6201572;23;20419;-96
2023/09/04 12:22:57;;;;;;;7.73;3.07;;;23.60;88.70;;;;;;6189128;23;20431;-96
2023/09/04 12:25:25;;;;;;;6.43;2.93;;;23.60;88.90;;;;;;6186590;23;20415;-91
2023/09/04 12:27:52;;;;;;;8.57;2.93;;;23.60;88.80;;;;;;6185863;23;20487;-96
2023/09/04 12:30:23;;;;;;;4.60;2.50;;;23.60;88.60;;;;;;6186052;23;20957;-91
2023/09/04 12:32:50;;;;;;;3.13;2.60;;;23.60;88.40;;;;;;6186488;23;20376;-92
2023/09/04 12:35:19;;;;;;;6.10;3.53;;;23.60;88.40;;;;;;6185938;23;20452;-95
2023/09/04 12:37:46;;;;;;;6.53;2.23;;;23.60;88.40;;;;;;6185973;23;20407;-94
2023/09/04 12:40:14;;;;;;;10.20;3.17;;;23.60;88.40;;;;;;6186335;23;20501;-96
2023/09/04 12:42:41;;;;;;;2.80;1.90;;;23.60;88.40;;;;;;6186924;23;20746;-96
2023/09/04 12:45:09;;;;;;;5.90;2.77;;;23.70;88.50;;;;;;6186363;23;20494;-92
2023/09/04 12:47:36;;;;;;;4.53;2.60;;;23.60;88.30;;;;;;6187935;23;20421;-92
2023/09/04 12:50:04;;;;;;;3.60;2.20;;;23.60;88.30;;;;;;6188139;23;20509;-92
2023/09/04 12:52:31;;;;;;;4.10;2.10;;;23.70;88.40;;;;;;6188131;23;20486;-96
2023/09/04 12:54:59;;;;;;;2.73;2.47;;;23.60;88.30;;;;;;6188665;23;20750;-92
2023/09/04 12:57:27;;;;;;;5.10;2.10;;;23.60;88.30;;;;;;6187711;23;20738;-93
2023/09/04 12:59:54;;;;;;;5.23;2.13;;;23.70;88.50;;;;;;6188706;23;20409;-96
2023/09/04 13:02:21;;;;;;;5.20;2.60;;;23.70;88.40;;;;;;6188220;23;20399;-96
2023/09/04 13:04:49;;;;;;;2.90;2.40;;;23.70;88.40;;;;;;6187797;23;20409;-96
2023/09/04 13:07:16;;;;;;;3.80;2.23;;;23.60;88.30;;;;;;6188232;23;20403;-93
2023/09/04 13:09:42;;;;;;;3.40;2.57;;;23.70;88.40;;;;;;6187637;23;20405;-92
2023/09/04 13:12:10;;;;;;;5.57;2.50;;;23.70;88.40;;;;;;6187775;23;20440;-96
2023/09/04 13:14:38;;;;;;;2.10;1.90;;;23.70;88.50;;;;;;6188704;23;20494;-96
2023/09/04 13:17:05;;;;;;;3.00;1.90;;;23.70;88.40;;;;;;6187537;23;20402;-95
2023/09/04 13:19:32;;;;;;;2.97;2.40;;;23.70;88.40;;;;;;6188200;23;20409;-96
2023/09/04 13:21:59;;;;;;;4.60;2.30;;;23.70;88.50;;;;;;6187640;23;20510;-93
2023/09/04 13:24:26;;;;;;;2.90;2.30;;;23.70;88.40;;;;;;6187733;23;20434;-94
2023/09/04 13:26:53;;;;;;;2.73;2.00;;;23.70;88.40;;;;;;6188367;23;20493;-93
2023/09/04 13:29:20;;;;;;;3.20;2.07;;;23.70;88.40;;;;;;6187742;23;20413;-95
2023/09/04 13:31:48;;;;;;;2.70;1.97;;;23.70;88.30;;;;;;6157661;23;20460;-96
2023/09/04 13:34:15;;;;;;;2.93;2.10;;;23.70;88.40;;;;;;6157990;23;20446;-93
2023/09/04 13:36:42;;;;;;;4.03;2.20;;;23.70;88.30;;;;;;6157758;23;20458;-93
2023/09/04 13:39:09;;;;;;;5.30;2.40;;;23.70;88.30;;;;;;6158054;23;20444;-93
2023/09/04 13:41:36;;;;;;;2.10;2.00;;;23.70;88.20;;;;;;6157754;23;20411;-93
2023/09/04 13:44:03;;;;;;;2.73;2.20;;;23.70;89.30;;;;;;6157973;23;20491;-96
2023/09/04 13:46:30;;;;;;;3.13;2.30;;;23.70;88.20;;;;;;6157963;23;20801;-95
2023/09/04 13:48:58;;;;;;;3.00;1.80;;;23.70;88.30;;;;;;6157543;23;20487;-96
2023/09/04 13:51:25;;;;;;;3.57;2.17;;;23.70;88.20;;;;;;6157438;23;20510;-94
2023/09/04 13:53:52;;;;;;;2.33;2.03;;;23.70;88.20;;;;;;6157262;23;20466;-96
2023/09/04 13:56:19;;;;;;;2.80;1.90;;;23.70;88.10;;;;;;6157860;23;20410;-93
2023/09/04 13:58:45;;;;;;;3.90;2.20;;;23.70;88.10;;;;;;6157523;23;20787;-95
2023/09/04 14:01:16;;;;;;;2.30;2.10;;;23.70;88.20;;;;;;6157323;23;20408;-96
2023/09/04 14:03:43;;;;;;;1.63;1.53;;;23.70;88.20;;;;;;6157167;23;20412;-93
2023/09/04 14:06:11;;;;;;;7.30;2.20;;;23.70;88.10;;;;;;6157485;23;20434;-94
2023/09/04 14:08:38;;;;;;;2.40;2.03;;;23.80;88.20;;;;;;6157417;23;20400;-95
2023/09/04 14:11:05;;;;;;;2.17;1.80;;;23.70;88.20;;;;;;6158212;23;20876;-94
2023/09/04 14:13:32;;;;;;;2.43;2.17;;;23.70;88.20;;;;;;6157220;23;20491;-96
2023/09/04 14:15:59;;;;;;;1.93;1.73;;;23.70;88.20;;;;;;6157393;23;20487;-94
2023/09/04 14:18:25;;;;;;;2.20;2.00;;;23.70;88.20;;;;;;6157624;23;20435;-94
2023/09/04 14:20:53;;;;;;;2.50;1.90;;;23.70;88.20;;;;;;6157498;23;20510;-96
2023/09/04 14:23:21;;;;;;;1.73;1.47;;;23.70;88.20;;;;;;6157300;23;20407;-96